sensor_id;sensor_type;location;lat;lon;timestamp;pressure;altitude;pressure_sealevel;temperature;humidity
69737;BME280;64476;55.004;73.342;2022-12-29T00:00:32;102331.34;;;-9.88;52.05
69737;BME280;64476;55.004;73.342;2022-12-29T00:03:37;102327.22;;;-9.86;53.08
69737;BME280;64476;55.004;73.342;2022-12-29T00:06:39;102320.66;;;-9.78;52.75
69737;BME280;64476;55.004;73.342;2022-12-29T00:09:45;102323.28;;;-9.75;52.67
69737;BME280;64476;55.004;73.342;2022-12-29T00:13:19;102328.28;;;-9.77;52.19
69737;BME280;64476;55.004;73.342;2022-12-29T00:16:55;102320.78;;;-9.74;52.08
69737;BME280;64476;55.004;73.342;2022-12-29T00:24:18;102321.66;;;-9.71;53.15
69737;BME280;64476;55.004;73.342;2022-12-29T00:28:01;102328.38;;;-9.72;53.08
69737;BME280;64476;55.004;73.342;2022-12-29T00:31:21;102329.00;;;-9.82;53.32
69737;BME280;64476;55.004;73.342;2022-12-29T00:34:41;102322.38;;;-9.77;53.16
69737;BME280;64476;55.004;73.342;2022-12-29T00:38:06;102322.53;;;-9.69;53.23
69737;BME280;64476;55.004;73.342;2022-12-29T00:41:15;102327.00;;;-9.59;52.55
69737;BME280;64476;55.004;73.342;2022-12-29T00:44:49;102333.81;;;-9.57;52.44
69737;BME280;64476;55.004;73.342;2022-12-29T00:47:51;102327.94;;;-9.56;52.89
69737;BME280;64476;55.004;73.342;2022-12-29T00:50:55;102332.41;;;-9.45;52.46
69737;BME280;64476;55.004;73.342;2022-12-29T00:54:06;102339.16;;;-9.44;51.90
69737;BME280;64476;55.004;73.342;2022-12-29T00:57:08;102334.94;;;-9.45;52.99
69737;BME280;64476;55.004;73.342;2022-12-29T01:00:10;102336.56;;;-9.48;52.39
69737;BME280;64476;55.004;73.342;2022-12-29T01:03:12;102333.28;;;-9.43;52.92
69737;BME280;64476;55.004;73.342;2022-12-29T01:06:18;102340.88;;;-9.43;51.87
69737;BME280;64476;55.004;73.342;2022-12-29T01:13:38;102338.25;;;-9.46;52.04
69737;BME280;64476;55.004;73.342;2022-12-29T01:16:44;102342.38;;;-9.52;51.99
69737;BME280;64476;55.004;73.342;2022-12-29T01:19:46;102344.00;;;-9.54;52.80
69737;BME280;64476;55.004;73.342;2022-12-29T01:22:47;102337.31;;;-9.52;52.84
69737;BME280;64476;55.004;73.342;2022-12-29T01:25:48;102344.97;;;-9.49;52.73
69737;BME280;64476;55.004;73.342;2022-12-29T01:28:53;102345.78;;;-9.50;52.22
69737;BME280;64476;55.004;73.342;2022-12-29T01:31:54;102343.97;;;-9.55;52.58
69737;BME280;64476;55.004;73.342;2022-12-29T01:35:06;102343.06;;;-9.57;53.09
69737;BME280;64476;55.004;73.342;2022-12-29T01:38:09;102338.06;;;-9.54;52.63
69737;BME280;64476;55.004;73.342;2022-12-29T01:41:16;102335.63;;;-9.51;52.36
69737;BME280;64476;55.004;73.342;2022-12-29T01:48:04;102347.66;;;-9.42;52.67
69737;BME280;64476;55.004;73.342;2022-12-29T01:51:22;102344.41;;;-9.37;52.64
69737;BME280;64476;55.004;73.342;2022-12-29T01:57:30;102352.25;;;-9.25;52.14
69737;BME280;64476;55.004;73.342;2022-12-29T02:00:37;102345.59;;;-9.21;52.29
69737;BME280;64476;55.004;73.342;2022-12-29T02:03:38;102347.31;;;-9.20;52.21
69737;BME280;64476;55.004;73.342;2022-12-29T02:06:46;102342.97;;;-9.26;51.99
69737;BME280;64476;55.004;73.342;2022-12-29T02:09:51;102345.47;;;-9.27;51.31
69737;BME280;64476;55.004;73.342;2022-12-29T02:12:53;102342.03;;;-9.29;51.06
69737;BME280;64476;55.004;73.342;2022-12-29T02:46:04;102363.38;;;-10.52;48.66
69737;BME280;64476;55.004;73.342;2022-12-29T02:52:49;102358.56;;;-10.75;48.94
69737;BME280;64476;55.004;73.342;2022-12-29T02:55:51;102363.41;;;-10.81;49.35
69737;BME280;64476;55.004;73.342;2022-12-29T02:58:53;102377.69;;;-10.81;49.28
69737;BME280;64476;55.004;73.342;2022-12-29T03:08:44;102402.22;;;-10.77;49.31
69737;BME280;64476;55.004;73.342;2022-12-29T03:11:53;102393.72;;;-10.79;48.88
69737;BME280;64476;55.004;73.342;2022-12-29T03:15:13;102401.97;;;-10.85;47.91
69737;BME280;64476;55.004;73.342;2022-12-29T03:18:55;102400.41;;;-10.81;48.90
69737;BME280;64476;55.004;73.342;2022-12-29T03:21:59;102394.34;;;-10.86;49.08
69737;BME280;64476;55.004;73.342;2022-12-29T03:25:29;102398.41;;;-10.91;49.34
69737;BME280;64476;55.004;73.342;2022-12-29T03:28:36;102406.81;;;-10.92;47.81
69737;BME280;64476;55.004;73.342;2022-12-29T03:31:39;102407.41;;;-11.00;48.05
69737;BME280;64476;55.004;73.342;2022-12-29T03:34:42;102405.47;;;-11.08;49.85
69737;BME280;64476;55.004;73.342;2022-12-29T03:41:15;102411.84;;;-11.20;48.58
69737;BME280;64476;55.004;73.342;2022-12-29T03:44:18;102419.38;;;-11.21;49.80
69737;BME280;64476;55.004;73.342;2022-12-29T03:47:20;102416.81;;;-11.23;48.99
69737;BME280;64476;55.004;73.342;2022-12-29T03:50:22;102415.91;;;-11.23;49.45
69737;BME280;64476;55.004;73.342;2022-12-29T03:53:23;102407.72;;;-11.17;50.14
69737;BME280;64476;55.004;73.342;2022-12-29T03:56:25;102411.19;;;-11.14;48.89
69737;BME280;64476;55.004;73.342;2022-12-29T03:59:27;102409.53;;;-11.12;49.26
69737;BME280;64476;55.004;73.342;2022-12-29T04:02:29;102412.88;;;-11.13;50.34
69737;BME280;64476;55.004;73.342;2022-12-29T04:09:12;102417.03;;;-11.15;48.80
69737;BME280;64476;55.004;73.342;2022-12-29T04:12:29;102424.53;;;-11.16;49.81
69737;BME280;64476;55.004;73.342;2022-12-29T04:15:42;102416.97;;;-11.16;49.75
69737;BME280;64476;55.004;73.342;2022-12-29T04:19:18;102419.47;;;-11.18;49.00
69737;BME280;64476;55.004;73.342;2022-12-29T04:22:21;102420.28;;;-11.19;50.33
69737;BME280;64476;55.004;73.342;2022-12-29T04:25:59;102415.28;;;-11.17;50.00
69737;BME280;64476;55.004;73.342;2022-12-29T04:29:04;102427.16;;;-11.13;49.87
69737;BME280;64476;55.004;73.342;2022-12-29T04:32:27;102436.25;;;-11.18;50.10
69737;BME280;64476;55.004;73.342;2022-12-29T04:35:38;102430.50;;;-11.14;50.25
69737;BME280;64476;55.004;73.342;2022-12-29T04:38:39;102439.13;;;-11.08;49.46
69737;BME280;64476;55.004;73.342;2022-12-29T04:41:41;102442.53;;;-11.06;49.79
69737;BME280;64476;55.004;73.342;2022-12-29T04:44:49;102440.13;;;-11.03;49.40
69737;BME280;64476;55.004;73.342;2022-12-29T04:48:09;102443.56;;;-11.01;49.83
69737;BME280;64476;55.004;73.342;2022-12-29T04:51:21;102444.97;;;-11.09;49.97
69737;BME280;64476;55.004;73.342;2022-12-29T04:54:24;102445.91;;;-11.05;49.72
69737;BME280;64476;55.004;73.342;2022-12-29T04:57:41;102446.22;;;-10.96;50.04
69737;BME280;64476;55.004;73.342;2022-12-29T05:00:48;102449.81;;;-10.88;49.28
69737;BME280;64476;55.004;73.342;2022-12-29T05:03:50;102445.72;;;-10.84;50.37
69737;BME280;64476;55.004;73.342;2022-12-29T05:06:52;102440.81;;;-10.80;49.97
69737;BME280;64476;55.004;73.342;2022-12-29T05:09:54;102447.56;;;-10.79;49.05
69737;BME280;64476;55.004;73.342;2022-12-29T05:13:00;102435.06;;;-10.76;49.28
69737;BME280;64476;55.004;73.342;2022-12-29T05:16:03;102437.66;;;-10.73;49.32
69737;BME280;64476;55.004;73.342;2022-12-29T05:19:07;102446.25;;;-10.67;49.91
69737;BME280;64476;55.004;73.342;2022-12-29T05:22:19;102439.63;;;-10.64;50.16
69737;BME280;64476;55.004;73.342;2022-12-29T05:25:31;102437.88;;;-10.66;49.67
69737;BME280;64476;55.004;73.342;2022-12-29T05:28:57;102440.41;;;-10.65;50.06
69737;BME280;64476;55.004;73.342;2022-12-29T05:32:03;102434.66;;;-10.61;49.40
69737;BME280;64476;55.004;73.342;2022-12-29T05:35:06;102437.34;;;-10.56;50.42
69737;BME280;64476;55.004;73.342;2022-12-29T05:38:10;102438.28;;;-10.53;49.49
69737;BME280;64476;55.004;73.342;2022-12-29T05:41:12;102435.81;;;-10.50;50.26
69737;BME280;64476;55.004;73.342;2022-12-29T05:44:23;102438.53;;;-10.43;49.32
69737;BME280;64476;55.004;73.342;2022-12-29T05:48:17;102438.63;;;-10.40;49.86
69737;BME280;64476;55.004;73.342;2022-12-29T05:51:51;102447.09;;;-10.38;49.19
69737;BME280;64476;55.004;73.342;2022-12-29T05:54:53;102454.72;;;-10.37;49.91
69737;BME280;64476;55.004;73.342;2022-12-29T05:57:57;102454.72;;;-10.37;50.08
69737;BME280;64476;55.004;73.342;2022-12-29T06:01:02;102453.88;;;-10.37;49.19
69737;BME280;64476;55.004;73.342;2022-12-29T06:04:04;102457.34;;;-10.34;49.67
69737;BME280;64476;55.004;73.342;2022-12-29T06:07:16;102455.59;;;-10.35;49.36
69737;BME280;64476;55.004;73.342;2022-12-29T06:10:22;102461.59;;;-10.31;50.03
69737;BME280;64476;55.004;73.342;2022-12-29T06:13:45;102458.41;;;-10.26;50.10
69737;BME280;64476;55.004;73.342;2022-12-29T06:20:25;102462.66;;;-10.23;49.47
69737;BME280;64476;55.004;73.342;2022-12-29T06:23:27;102460.28;;;-10.17;49.95
69737;BME280;64476;55.004;73.342;2022-12-29T06:26:33;102458.78;;;-10.12;49.90
69737;BME280;64476;55.004;73.342;2022-12-29T06:29:39;102457.22;;;-10.07;49.92
69737;BME280;64476;55.004;73.342;2022-12-29T06:36:23;102443.28;;;-9.92;49.77
69737;BME280;64476;55.004;73.342;2022-12-29T06:40:03;102444.34;;;-9.84;49.47
69737;BME280;64476;55.004;73.342;2022-12-29T06:43:37;102437.59;;;-9.85;49.54
69737;BME280;64476;55.004;73.342;2022-12-29T06:47:19;102442.72;;;-9.82;49.46
69737;BME280;64476;55.004;73.342;2022-12-29T06:50:21;102437.53;;;-9.87;49.31
69737;BME280;64476;55.004;73.342;2022-12-29T06:53:22;102441.00;;;-9.83;49.12
69737;BME280;64476;55.004;73.342;2022-12-29T06:56:28;102448.63;;;-9.82;49.05
69737;BME280;64476;55.004;73.342;2022-12-29T06:59:30;102438.53;;;-9.82;49.51
69737;BME280;64476;55.004;73.342;2022-12-29T07:02:41;102419.69;;;-9.93;50.29
69737;BME280;64476;55.004;73.342;2022-12-29T07:05:43;102437.06;;;-9.74;49.57
69737;BME280;64476;55.004;73.342;2022-12-29T07:12:00;102445.09;;;-9.55;49.81
69737;BME280;64476;55.004;73.342;2022-12-29T07:15:02;102442.81;;;-9.46;49.83
69737;BME280;64476;55.004;73.342;2022-12-29T07:21:38;102430.84;;;-9.18;48.95
69737;BME280;64476;55.004;73.342;2022-12-29T07:24:43;102441.13;;;-9.11;49.38
69737;BME280;64476;55.004;73.342;2022-12-29T07:27:48;102428.56;;;-9.08;49.38
69737;BME280;64476;55.004;73.342;2022-12-29T07:30:49;102431.88;;;-9.10;49.35
69737;BME280;64476;55.004;73.342;2022-12-29T07:33:50;102428.41;;;-9.14;49.62
69737;BME280;64476;55.004;73.342;2022-12-29T07:36:53;102426.81;;;-9.10;49.79
69737;BME280;64476;55.004;73.342;2022-12-29T07:40:04;102433.59;;;-9.09;49.39
69737;BME280;64476;55.004;73.342;2022-12-29T07:43:06;102427.63;;;-9.11;49.87
69737;BME280;64476;55.004;73.342;2022-12-29T07:46:45;102427.66;;;-9.10;50.24
69737;BME280;64476;55.004;73.342;2022-12-29T07:49:51;102432.72;;;-9.10;49.53
69737;BME280;64476;55.004;73.342;2022-12-29T07:52:53;102432.69;;;-9.11;49.77
69737;BME280;64476;55.004;73.342;2022-12-29T07:55:54;102431.78;;;-9.13;50.21
69737;BME280;64476;55.004;73.342;2022-12-29T07:58:56;102426.81;;;-9.10;50.25
69737;BME280;64476;55.004;73.342;2022-12-29T08:01:58;102432.72;;;-9.10;49.93
69737;BME280;64476;55.004;73.342;2022-12-29T08:05:01;102433.59;;;-9.09;50.14
69737;BME280;64476;55.004;73.342;2022-12-29T08:08:03;102435.31;;;-9.08;50.24
69737;BME280;64476;55.004;73.342;2022-12-29T08:11:04;102433.63;;;-9.08;50.07
69737;BME280;64476;55.004;73.342;2022-12-29T08:14:06;102428.53;;;-9.09;49.75
69737;BME280;64476;55.004;73.342;2022-12-29T08:17:11;102427.47;;;-9.17;49.94
69737;BME280;64476;55.004;73.342;2022-12-29T08:20:12;102422.28;;;-9.23;49.85
69737;BME280;64476;55.004;73.342;2022-12-29T08:23:14;102429.81;;;-9.25;49.76
69737;BME280;64476;55.004;73.342;2022-12-29T08:26:25;102431.50;;;-9.26;49.66
69737;BME280;64476;55.004;73.342;2022-12-29T08:29:26;102432.41;;;-9.23;50.36
69737;BME280;64476;55.004;73.342;2022-12-29T08:32:31;102429.94;;;-9.20;50.29
69737;BME280;64476;55.004;73.342;2022-12-29T08:35:47;102421.56;;;-9.18;50.28
69737;BME280;64476;55.004;73.342;2022-12-29T08:38:49;102431.69;;;-9.18;49.21
69737;BME280;64476;55.004;73.342;2022-12-29T08:41:50;102425.78;;;-9.17;50.07
69737;BME280;64476;55.004;73.342;2022-12-29T08:44:52;102414.72;;;-9.22;49.87
69737;BME280;64476;55.004;73.342;2022-12-29T08:47:53;102420.50;;;-9.28;50.04
69737;BME280;64476;55.004;73.342;2022-12-29T08:50:55;102427.19;;;-9.30;49.60
69737;BME280;64476;55.004;73.342;2022-12-29T08:54:01;102422.13;;;-9.30;50.41
69737;BME280;64476;55.004;73.342;2022-12-29T08:57:03;102428.13;;;-9.26;49.98
69737;BME280;64476;55.004;73.342;2022-12-29T09:00:11;102429.81;;;-9.25;49.95
69737;BME280;64476;55.004;73.342;2022-12-29T09:03:13;102434.03;;;-9.26;50.45
69737;BME280;64476;55.004;73.342;2022-12-29T09:06:15;102428.13;;;-9.26;50.24
69737;BME280;64476;55.004;73.342;2022-12-29T09:09:17;102432.34;;;-9.27;50.42
69737;BME280;64476;55.004;73.342;2022-12-29T09:15:35;102433.09;;;-9.31;50.09
69737;BME280;64476;55.004;73.342;2022-12-29T09:18:36;102444.06;;;-9.30;50.46
69737;BME280;64476;55.004;73.342;2022-12-29T09:21:37;102437.22;;;-9.33;49.92
69737;BME280;64476;55.004;73.342;2022-12-29T09:24:39;102442.28;;;-9.34;50.25
69737;BME280;64476;55.004;73.342;2022-12-29T09:27:41;102442.22;;;-9.36;50.53
69737;BME280;64476;55.004;73.342;2022-12-29T09:30:46;102442.13;;;-9.39;49.95
69737;BME280;64476;55.004;73.342;2022-12-29T09:33:57;102443.75;;;-9.42;50.43
69737;BME280;64476;55.004;73.342;2022-12-29T09:36:59;102442.00;;;-9.45;49.65
69737;BME280;64476;55.004;73.342;2022-12-29T09:40:00;102440.31;;;-9.46;50.04
69737;BME280;64476;55.004;73.342;2022-12-29T09:47:16;102456.00;;;-9.58;50.40
69737;BME280;64476;55.004;73.342;2022-12-29T09:50:34;102456.66;;;-9.65;49.42
69737;BME280;64476;55.004;73.342;2022-12-29T09:53:52;102459.81;;;-9.72;49.42
69737;BME280;64476;55.004;73.342;2022-12-29T09:57:02;102457.25;;;-9.75;49.22
69737;BME280;64476;55.004;73.342;2022-12-29T10:00:26;102459.50;;;-9.84;49.47
69737;BME280;64476;55.004;73.342;2022-12-29T10:04:08;102459.34;;;-9.90;50.28
69737;BME280;64476;55.004;73.342;2022-12-29T10:10:29;102462.59;;;-9.94;50.06
69737;BME280;64476;55.004;73.342;2022-12-29T10:13:43;102469.28;;;-9.97;49.41
69737;BME280;64476;55.004;73.342;2022-12-29T10:26:09;102457.22;;;-10.07;49.81
69737;BME280;64476;55.004;73.342;2022-12-29T10:29:24;102462.19;;;-10.10;49.13
69737;BME280;64476;55.004;73.342;2022-12-29T10:35:31;102460.25;;;-10.18;49.63
69737;BME280;64476;55.004;73.342;2022-12-29T10:45:16;102461.59;;;-10.31;49.96
69737;BME280;64476;55.004;73.342;2022-12-29T10:48:22;102455.59;;;-10.35;49.60
69737;BME280;64476;55.004;73.342;2022-12-29T10:51:38;102455.53;;;-10.38;48.77
69737;BME280;64476;55.004;73.342;2022-12-29T10:54:53;102458.69;;;-10.45;48.64
69737;BME280;64476;55.004;73.342;2022-12-29T10:57:55;102374.63;;;-11.00;48.86
69737;BME280;64476;55.004;73.342;2022-12-29T11:01:33;102456.72;;;-10.55;49.42
69737;BME280;64476;55.004;73.342;2022-12-29T11:08:14;102457.22;;;-10.65;49.74
69737;BME280;64476;55.004;73.342;2022-12-29T11:11:22;102461.34;;;-10.69;48.95
69737;BME280;64476;55.004;73.342;2022-12-29T11:14:30;102464.38;;;-10.79;48.94
69737;BME280;64476;55.004;73.342;2022-12-29T11:17:47;102461.81;;;-10.81;48.67
69737;BME280;64476;55.004;73.342;2022-12-29T11:21:01;102471.06;;;-10.81;48.53
69737;BME280;64476;55.004;73.342;2022-12-29T11:24:35;102463.44;;;-10.83;49.38
69737;BME280;64476;55.004;73.342;2022-12-29T11:28:19;102470.00;;;-10.88;48.05
69737;BME280;64476;55.004;73.342;2022-12-29T11:31:21;102472.44;;;-10.91;48.60
69737;BME280;64476;55.004;73.342;2022-12-29T11:40:37;102476.44;;;-10.98;49.01
69737;BME280;64476;55.004;73.342;2022-12-29T11:43:44;102473.00;;;-11.00;47.97
69737;BME280;64476;55.004;73.342;2022-12-29T11:46:53;102475.44;;;-11.03;48.54
69737;BME280;64476;55.004;73.342;2022-12-29T11:50:00;102477.13;;;-11.02;47.93
69737;BME280;64476;55.004;73.342;2022-12-29T11:53:08;102477.97;;;-11.03;49.30
69737;BME280;64476;55.004;73.342;2022-12-29T11:56:39;102477.91;;;-11.04;50.00
69737;BME280;64476;55.004;73.342;2022-12-29T11:59:43;102472.94;;;-11.01;50.19
69737;BME280;64476;55.004;73.342;2022-12-29T12:02:58;102477.25;;;-10.99;50.28
69737;BME280;64476;55.004;73.342;2022-12-29T12:06:05;102485.56;;;-11.01;50.51
69737;BME280;64476;55.004;73.342;2022-12-29T12:09:21;102486.34;;;-11.04;50.86
69737;BME280;64476;55.004;73.342;2022-12-29T12:12:48;102482.88;;;-11.07;50.31
69737;BME280;64476;55.004;73.342;2022-12-29T12:19:42;102488.19;;;-11.24;49.69
69737;BME280;64476;55.004;73.342;2022-12-29T12:27:12;102489.47;;;-11.36;49.57
69737;BME280;64476;55.004;73.342;2022-12-29T12:30:45;102488.53;;;-11.38;49.78
69737;BME280;64476;55.004;73.342;2022-12-29T12:33:50;102495.16;;;-11.42;50.11
69737;BME280;64476;55.004;73.342;2022-12-29T12:41:11;102491.56;;;-11.49;49.56
69737;BME280;64476;55.004;73.342;2022-12-29T12:48:21;102484.69;;;-11.53;49.54
69737;BME280;64476;55.004;73.342;2022-12-29T12:51:50;102478.81;;;-11.53;50.08
69737;BME280;64476;55.004;73.342;2022-12-29T13:15:12;102481.41;;;-11.52;50.82
69737;BME280;64476;55.004;73.342;2022-12-29T13:19:20;102495.94;;;-11.45;49.58
69737;BME280;64476;55.004;73.342;2022-12-29T13:22:07;102500.09;;;-11.45;49.84
69737;BME280;64476;55.004;73.342;2022-12-29T13:28:31;102505.03;;;-11.48;49.96
69737;BME280;64476;55.004;73.342;2022-12-29T13:31:43;102494.03;;;-11.50;49.95
69737;BME280;64476;55.004;73.342;2022-12-29T13:38:11;102495.72;;;-11.51;51.09
69737;BME280;64476;55.004;73.342;2022-12-29T13:41:16;102497.31;;;-11.53;50.47
69737;BME280;64476;55.004;73.342;2022-12-29T13:51:08;102491.38;;;-11.55;50.21
69737;BME280;64476;55.004;73.342;2022-12-29T13:54:18;102501.34;;;-11.58;51.37
69737;BME280;64476;55.004;73.342;2022-12-29T13:58:03;102501.56;;;-11.52;50.90
69737;BME280;64476;55.004;73.342;2022-12-29T14:01:11;102508.19;;;-11.54;50.83
69737;BME280;64476;55.004;73.342;2022-12-29T14:04:25;102510.63;;;-11.57;51.30
69737;BME280;64476;55.004;73.342;2022-12-29T14:07:40;102509.75;;;-11.57;50.40
69737;BME280;64476;55.004;73.342;2022-12-29T14:10:48;102511.38;;;-11.59;50.07
69737;BME280;64476;55.004;73.342;2022-12-29T14:13:53;102516.47;;;-11.58;50.14
69737;BME280;64476;55.004;73.342;2022-12-29T14:20:01;102512.44;;;-11.53;50.30
69737;BME280;64476;55.004;73.342;2022-12-29T14:26:15;102512.66;;;-11.47;50.53
69737;BME280;64476;55.004;73.342;2022-12-29T14:35:38;102499.69;;;-11.57;50.75
69737;BME280;64476;55.004;73.342;2022-12-29T14:38:43;102507.25;;;-11.57;50.91
69737;BME280;64476;55.004;73.342;2022-12-29T14:41:45;102500.50;;;-11.58;50.57
69737;BME280;64476;55.004;73.342;2022-12-29T14:48:32;102494.47;;;-11.62;50.72
69737;BME280;64476;55.004;73.342;2022-12-29T14:51:42;102499.56;;;-11.60;50.88
69737;BME280;64476;55.004;73.342;2022-12-29T14:54:56;102489.56;;;-11.59;50.82
69737;BME280;64476;55.004;73.342;2022-12-29T14:58:01;102494.59;;;-11.59;50.54
69737;BME280;64476;55.004;73.342;2022-12-29T15:01:05;102491.31;;;-11.56;50.34
69737;BME280;64476;55.004;73.342;2022-12-29T15:04:31;102489.75;;;-11.53;51.04
69737;BME280;64476;55.004;73.342;2022-12-29T15:07:43;102498.22;;;-11.51;49.72
69737;BME280;64476;55.004;73.342;2022-12-29T15:10:48;102495.75;;;-11.49;50.78
69737;BME280;64476;55.004;73.342;2022-12-29T15:13:50;102498.34;;;-11.48;49.56
69737;BME280;64476;55.004;73.342;2022-12-29T15:16:51;102500.84;;;-11.48;50.38
69737;BME280;64476;55.004;73.342;2022-12-29T15:19:54;102502.59;;;-11.45;50.68
69737;BME280;64476;55.004;73.342;2022-12-29T15:23:02;102506.09;;;-11.41;50.73
69737;BME280;64476;55.004;73.342;2022-12-29T15:26:07;102509.41;;;-11.43;50.68
69737;BME280;64476;55.004;73.342;2022-12-29T15:32:42;102515.50;;;-11.37;50.10
69737;BME280;64476;55.004;73.342;2022-12-29T15:35:44;102508.09;;;-11.33;50.42
69737;BME280;64476;55.004;73.342;2022-12-29T15:38:50;102509.94;;;-11.27;50.24
69737;BME280;64476;55.004;73.342;2022-12-29T15:41:59;102515.16;;;-11.23;51.42
69737;BME280;64476;55.004;73.342;2022-12-29T15:45:09;102510.19;;;-11.20;50.44
69737;BME280;64476;55.004;73.342;2022-12-29T15:48:23;102520.44;;;-11.15;51.57
69737;BME280;64476;55.004;73.342;2022-12-29T15:54:37;102517.22;;;-11.11;51.53
69737;BME280;64476;55.004;73.342;2022-12-29T15:57:42;102513.13;;;-11.07;50.74
69737;BME280;64476;55.004;73.342;2022-12-29T16:00:46;102508.19;;;-11.04;50.43
69737;BME280;64476;55.004;73.342;2022-12-29T16:03:49;102519.03;;;-11.07;51.03
69737;BME280;64476;55.004;73.342;2022-12-29T16:10:02;102522.25;;;-11.11;50.35
69737;BME280;64476;55.004;73.342;2022-12-29T16:13:05;102517.97;;;-11.13;50.51
69737;BME280;64476;55.004;73.342;2022-12-29T16:16:14;102522.97;;;-11.15;50.53
69737;BME280;64476;55.004;73.342;2022-12-29T16:19:28;102522.16;;;-11.14;50.81
69737;BME280;64476;55.004;73.342;2022-12-29T16:22:42;102528.44;;;-11.27;50.82
69737;BME280;64476;55.004;73.342;2022-12-29T16:25:47;102522.63;;;-11.26;49.90
69737;BME280;64476;55.004;73.342;2022-12-29T16:28:55;102527.44;;;-11.32;49.81
69737;BME280;64476;55.004;73.342;2022-12-29T16:39:50;102522.84;;;-11.44;50.08
69737;BME280;64476;55.004;73.342;2022-12-29T16:43:02;102527.91;;;-11.42;50.66
69737;BME280;64476;55.004;73.342;2022-12-29T16:52:57;102512.16;;;-11.36;50.17
69737;BME280;64476;55.004;73.342;2022-12-29T16:56:01;102506.78;;;-11.46;50.29
69737;BME280;64476;55.004;73.342;2022-12-29T16:59:25;102509.16;;;-11.50;50.74
69737;BME280;64476;55.004;73.342;2022-12-29T17:03:01;102506.41;;;-11.56;49.34
69737;BME280;64476;55.004;73.342;2022-12-29T17:06:10;102504.59;;;-11.60;50.17
69737;BME280;64476;55.004;73.342;2022-12-29T17:12:55;102497.84;;;-11.61;50.43
69737;BME280;64476;55.004;73.342;2022-12-29T17:16:00;102504.47;;;-11.65;50.33
69737;BME280;64476;55.004;73.342;2022-12-29T17:19:02;102498.59;;;-11.64;51.93
69737;BME280;64476;55.004;73.342;2022-12-29T17:22:19;102502.94;;;-11.60;51.49
69737;BME280;64476;55.004;73.342;2022-12-29T17:25:27;102497.91;;;-11.60;51.48
69737;BME280;64476;55.004;73.342;2022-12-29T17:28:30;102491.13;;;-11.62;51.19
69737;BME280;64476;55.004;73.342;2022-12-29T17:31:35;102490.63;;;-11.76;51.24
69737;BME280;64476;55.004;73.342;2022-12-29T17:34:43;102486.44;;;-11.76;51.05
69737;BME280;64476;55.004;73.342;2022-12-29T17:37:44;102486.59;;;-11.71;51.23
69737;BME280;64476;55.004;73.342;2022-12-29T17:40:46;102487.41;;;-11.72;51.16
69737;BME280;64476;55.004;73.342;2022-12-29T17:43:52;102479.09;;;-11.70;50.53
69737;BME280;64476;55.004;73.342;2022-12-29T17:46:53;102482.47;;;-11.69;50.45
69737;BME280;64476;55.004;73.342;2022-12-29T17:49:54;102485.00;;;-11.69;51.52
69737;BME280;64476;55.004;73.342;2022-12-29T17:56:01;102484.78;;;-11.75;51.59
69737;BME280;64476;55.004;73.342;2022-12-29T17:59:13;102475.41;;;-11.79;50.38
69737;BME280;64476;55.004;73.342;2022-12-29T18:02:28;102479.53;;;-11.81;51.37
69737;BME280;64476;55.004;73.342;2022-12-29T18:05:30;102473.63;;;-11.82;50.58
69737;BME280;64476;55.004;73.342;2022-12-29T18:08:36;102471.09;;;-11.82;50.59
69737;BME280;64476;55.004;73.342;2022-12-29T18:11:42;102478.66;;;-11.83;51.41
69737;BME280;64476;55.004;73.342;2022-12-29T18:14:43;102470.88;;;-11.89;50.97
69737;BME280;64476;55.004;73.342;2022-12-29T18:17:45;102472.72;;;-11.85;51.46
69737;BME280;64476;55.004;73.342;2022-12-29T18:20:48;102473.59;;;-11.83;52.11
69737;BME280;64476;55.004;73.342;2022-12-29T18:23:51;102466.16;;;-11.79;51.48
69737;BME280;64476;55.004;73.342;2022-12-29T18:26:53;102477.19;;;-11.77;50.88
69737;BME280;64476;55.004;73.342;2022-12-29T18:29:54;102470.25;;;-11.84;51.94
69737;BME280;64476;55.004;73.342;2022-12-29T18:33:40;102469.31;;;-11.86;52.20
69737;BME280;64476;55.004;73.342;2022-12-29T18:36:51;102472.03;;;-11.80;51.55
69737;BME280;64476;55.004;73.342;2022-12-29T18:39:53;102472.84;;;-11.81;50.95
69737;BME280;64476;55.004;73.342;2022-12-29T18:42:57;102473.34;;;-11.91;52.26
69737;BME280;64476;55.004;73.342;2022-12-29T18:46:04;102477.56;;;-11.90;51.64
69737;BME280;64476;55.004;73.342;2022-12-29T18:52:38;102470.66;;;-11.96;52.16
69737;BME280;64476;55.004;73.342;2022-12-29T18:55:50;102477.09;;;-12.04;51.92
69737;BME280;64476;55.004;73.342;2022-12-29T18:58:52;102482.72;;;-12.11;52.32
69737;BME280;64476;55.004;73.342;2022-12-29T19:01:53;102478.41;;;-12.13;51.83
69737;BME280;64476;55.004;73.342;2022-12-29T19:04:54;102476.63;;;-12.16;51.94
69737;BME280;64476;55.004;73.342;2022-12-29T19:07:58;102475.75;;;-12.18;52.41
69737;BME280;64476;55.004;73.342;2022-12-29T19:10:59;102470.75;;;-12.17;52.16
69737;BME280;64476;55.004;73.342;2022-12-29T19:14:01;102480.09;;;-12.14;52.03
69737;BME280;64476;55.004;73.342;2022-12-29T19:17:02;102474.97;;;-12.15;52.29
69737;BME280;64476;55.004;73.342;2022-12-29T19:20:04;102476.72;;;-12.14;51.37
69737;BME280;64476;55.004;73.342;2022-12-29T19:23:06;102472.19;;;-12.23;51.60
69737;BME280;64476;55.004;73.342;2022-12-29T19:26:19;102474.78;;;-12.22;51.11
69737;BME280;64476;55.004;73.342;2022-12-29T19:29:27;102470.47;;;-12.24;52.02
69737;BME280;64476;55.004;73.342;2022-12-29T19:32:32;102465.56;;;-12.21;52.09
69737;BME280;64476;55.004;73.342;2022-12-29T19:35:38;102462.22;;;-12.20;50.82
69737;BME280;64476;55.004;73.342;2022-12-29T19:38:50;102470.50;;;-12.23;51.30
69737;BME280;64476;55.004;73.342;2022-12-29T19:41:52;102465.66;;;-12.18;50.56